sensor_id;sensor_type;location;lat;lon;timestamp;temperature;humidity
18335;DHT22;9293;49.524;10.964;2023-05-10T00:02:22;16.40;99.90
18335;DHT22;9293;49.524;10.964;2023-05-10T00:04:50;16.30;99.90
18335;DHT22;9293;49.524;10.964;2023-05-10T00:07:21;16.20;99.90
18335;DHT22;9293;49.524;10.964;2023-05-10T00:09:49;16.20;99.90
18335;DHT22;9293;49.524;10.964;2023-05-10T00:12:17;16.20;99.90
18335;DHT22;9293;49.524;10.964;2023-05-10T00:14:47;16.30;99.90
18335;DHT22;9293;49.524;10.964;2023-05-10T00:17:18;16.20;99.90
18335;DHT22;9293;49.524;10.964;2023-05-10T00:19:46;16.20;99.90
18335;DHT22;9293;49.524;10.964;2023-05-10T00:22:14;16.20;99.90
18335;DHT22;9293;49.524;10.964;2023-05-10T00:24:42;16.20;99.90
18335;DHT22;9293;49.524;10.964;2023-05-10T00:27:10;16.10;99.90
18335;DHT22;9293;49.524;10.964;2023-05-10T00:29:39;15.90;99.90
18335;DHT22;9293;49.524;10.964;2023-05-10T00:32:07;15.90;99.90
18335;DHT22;9293;49.524;10.964;2023-05-10T00:34:35;15.90;99.90
18335;DHT22;9293;49.524;10.964;2023-05-10T00:37:05;15.80;99.90
18335;DHT22;9293;49.524;10.964;2023-05-10T00:39:33;15.80;99.90
18335;DHT22;9293;49.524;10.964;2023-05-10T00:42:01;15.80;99.90
18335;DHT22;9293;49.524;10.964;2023-05-10T00:44:29;15.80;99.90
18335;DHT22;9293;49.524;10.964;2023-05-10T00:46:58;15.90;99.90
18335;DHT22;9293;49.524;10.964;2023-05-10T00:49:27;15.90;99.90
18335;DHT22;9293;49.524;10.964;2023-05-10T00:51:55;16.00;99.90
18335;DHT22;9293;49.524;10.964;2023-05-10T00:54:23;16.00;99.90
18335;DHT22;9293;49.524;10.964;2023-05-10T00:56:51;15.90;99.90
18335;DHT22;9293;49.524;10.964;2023-05-10T00:59:20;15.80;99.90
18335;DHT22;9293;49.524;10.964;2023-05-10T01:01:48;15.90;99.90
18335;DHT22;9293;49.524;10.964;2023-05-10T01:04:16;15.80;99.90
18335;DHT22;9293;49.524;10.964;2023-05-10T01:06:45;15.80;99.90
18335;DHT22;9293;49.524;10.964;2023-05-10T01:09:13;15.70;99.90
18335;DHT22;9293;49.524;10.964;2023-05-10T01:11:41;15.70;99.90
18335;DHT22;9293;49.524;10.964;2023-05-10T01:14:09;15.70;99.90
18335;DHT22;9293;49.524;10.964;2023-05-10T01:16:38;15.70;99.90
18335;DHT22;9293;49.524;10.964;2023-05-10T01:19:08;15.70;99.90
18335;DHT22;9293;49.524;10.964;2023-05-10T01:24:18;15.60;99.90
18335;DHT22;9293;49.524;10.964;2023-05-10T01:29:43;15.60;99.90
18335;DHT22;9293;49.524;10.964;2023-05-10T01:35:17;15.50;99.90
18335;DHT22;9293;49.524;10.964;2023-05-10T01:37:49;15.60;99.90
18335;DHT22;9293;49.524;10.964;2023-05-10T01:40:38;15.50;99.90
18335;DHT22;9293;49.524;10.964;2023-05-10T01:43:08;15.50;99.90
18335;DHT22;9293;49.524;10.964;2023-05-10T01:45:41;15.40;99.90
18335;DHT22;9293;49.524;10.964;2023-05-10T01:48:10;15.50;99.90
18335;DHT22;9293;49.524;10.964;2023-05-10T01:50:40;15.50;99.90
18335;DHT22;9293;49.524;10.964;2023-05-10T01:53:10;15.50;99.90
18335;DHT22;9293;49.524;10.964;2023-05-10T01:55:46;15.50;99.90
18335;DHT22;9293;49.524;10.964;2023-05-10T01:58:17;15.60;99.90
18335;DHT22;9293;49.524;10.964;2023-05-10T02:00:47;15.60;99.90
18335;DHT22;9293;49.524;10.964;2023-05-10T02:03:18;15.60;99.90
18335;DHT22;9293;49.524;10.964;2023-05-10T02:05:48;15.50;99.90
18335;DHT22;9293;49.524;10.964;2023-05-10T02:08:20;15.40;99.90
18335;DHT22;9293;49.524;10.964;2023-05-10T02:10:50;15.40;99.90
18335;DHT22;9293;49.524;10.964;2023-05-10T02:13:19;15.40;99.90
18335;DHT22;9293;49.524;10.964;2023-05-10T02:15:48;15.40;99.90
18335;DHT22;9293;49.524;10.964;2023-05-10T02:18:16;15.30;99.90
18335;DHT22;9293;49.524;10.964;2023-05-10T02:20:45;15.30;99.90
18335;DHT22;9293;49.524;10.964;2023-05-10T02:23:14;15.30;99.90
18335;DHT22;9293;49.524;10.964;2023-05-10T02:25:44;15.30;99.90
18335;DHT22;9293;49.524;10.964;2023-05-10T02:28:15;15.30;99.90
18335;DHT22;9293;49.524;10.964;2023-05-10T02:30:47;15.20;99.90
18335;DHT22;9293;49.524;10.964;2023-05-10T02:33:16;15.20;99.90
18335;DHT22;9293;49.524;10.964;2023-05-10T02:35:45;15.20;99.90
18335;DHT22;9293;49.524;10.964;2023-05-10T02:38:14;15.20;99.90
18335;DHT22;9293;49.524;10.964;2023-05-10T02:40:42;15.20;99.90
18335;DHT22;9293;49.524;10.964;2023-05-10T02:43:12;15.10;99.90
18335;DHT22;9293;49.524;10.964;2023-05-10T02:45:41;15.10;99.90
18335;DHT22;9293;49.524;10.964;2023-05-10T02:48:10;15.20;99.90
18335;DHT22;9293;49.524;10.964;2023-05-10T02:50:38;15.30;99.90
18335;DHT22;9293;49.524;10.964;2023-05-10T02:53:11;15.30;99.90
18335;DHT22;9293;49.524;10.964;2023-05-10T02:55:40;15.30;99.90
18335;DHT22;9293;49.524;10.964;2023-05-10T02:58:09;15.20;99.90
18335;DHT22;9293;49.524;10.964;2023-05-10T03:00:38;15.00;99.90
18335;DHT22;9293;49.524;10.964;2023-05-10T03:03:06;15.00;99.90
18335;DHT22;9293;49.524;10.964;2023-05-10T03:05:35;15.10;99.90
18335;DHT22;9293;49.524;10.964;2023-05-10T03:08:03;15.10;99.90
18335;DHT22;9293;49.524;10.964;2023-05-10T03:10:33;15.10;99.90
18335;DHT22;9293;49.524;10.964;2023-05-10T03:13:29;15.10;99.90
18335;DHT22;9293;49.524;10.964;2023-05-10T03:18:54;15.10;99.90
18335;DHT22;9293;49.524;10.964;2023-05-10T03:21:23;15.00;99.90
18335;DHT22;9293;49.524;10.964;2023-05-10T03:24:07;15.00;99.90
18335;DHT22;9293;49.524;10.964;2023-05-10T03:26:36;15.00;99.90
18335;DHT22;9293;49.524;10.964;2023-05-10T03:29:12;15.00;99.90
18335;DHT22;9293;49.524;10.964;2023-05-10T03:31:42;14.90;99.90
18335;DHT22;9293;49.524;10.964;2023-05-10T03:34:14;14.70;99.90
18335;DHT22;9293;49.524;10.964;2023-05-10T03:36:46;14.70;99.90
18335;DHT22;9293;49.524;10.964;2023-05-10T03:39:15;14.60;99.90
18335;DHT22;9293;49.524;10.964;2023-05-10T03:41:53;14.40;99.90
18335;DHT22;9293;49.524;10.964;2023-05-10T03:44:21;14.30;99.90
18335;DHT22;9293;49.524;10.964;2023-05-10T03:46:49;14.30;99.90
18335;DHT22;9293;49.524;10.964;2023-05-10T03:49:18;14.30;99.90
18335;DHT22;9293;49.524;10.964;2023-05-10T03:51:46;14.20;99.90
18335;DHT22;9293;49.524;10.964;2023-05-10T03:54:15;14.30;99.90
18335;DHT22;9293;49.524;10.964;2023-05-10T03:56:43;14.20;99.90
18335;DHT22;9293;49.524;10.964;2023-05-10T03:59:11;14.20;99.90
18335;DHT22;9293;49.524;10.964;2023-05-10T04:01:39;14.30;99.90
18335;DHT22;9293;49.524;10.964;2023-05-10T04:04:08;14.30;99.90
18335;DHT22;9293;49.524;10.964;2023-05-10T04:06:37;14.20;99.90
18335;DHT22;9293;49.524;10.964;2023-05-10T04:09:05;14.20;99.90
18335;DHT22;9293;49.524;10.964;2023-05-10T04:11:34;14.20;99.90
18335;DHT22;9293;49.524;10.964;2023-05-10T04:14:02;14.10;99.90
18335;DHT22;9293;49.524;10.964;2023-05-10T04:16:30;14.10;99.90
18335;DHT22;9293;49.524;10.964;2023-05-10T04:18:58;14.10;99.90
18335;DHT22;9293;49.524;10.964;2023-05-10T04:21:27;14.00;99.90
18335;DHT22;9293;49.524;10.964;2023-05-10T04:23:55;14.00;99.90
18335;DHT22;9293;49.524;10.964;2023-05-10T04:26:24;14.00;99.90
18335;DHT22;9293;49.524;10.964;2023-05-10T04:28:53;13.90;99.90
18335;DHT22;9293;49.524;10.964;2023-05-10T04:31:21;14.00;99.90
18335;DHT22;9293;49.524;10.964;2023-05-10T04:33:49;14.00;99.90
18335;DHT22;9293;49.524;10.964;2023-05-10T04:36:18;14.10;99.90
18335;DHT22;9293;49.524;10.964;2023-05-10T04:38:46;14.10;99.90
18335;DHT22;9293;49.524;10.964;2023-05-10T04:41:14;14.10;99.90
18335;DHT22;9293;49.524;10.964;2023-05-10T04:43:43;14.00;99.90
18335;DHT22;9293;49.524;10.964;2023-05-10T04:46:11;14.00;99.90
18335;DHT22;9293;49.524;10.964;2023-05-10T04:48:39;14.00;99.90
18335;DHT22;9293;49.524;10.964;2023-05-10T04:51:07;14.00;99.90
18335;DHT22;9293;49.524;10.964;2023-05-10T04:53:35;14.00;99.90
18335;DHT22;9293;49.524;10.964;2023-05-10T04:56:03;14.00;99.90
18335;DHT22;9293;49.524;10.964;2023-05-10T04:58:31;13.90;99.90
18335;DHT22;9293;49.524;10.964;2023-05-10T05:01:07;13.90;99.90
18335;DHT22;9293;49.524;10.964;2023-05-10T05:03:36;13.90;99.90
18335;DHT22;9293;49.524;10.964;2023-05-10T05:06:04;13.90;99.90
18335;DHT22;9293;49.524;10.964;2023-05-10T05:08:32;13.90;99.90
18335;DHT22;9293;49.524;10.964;2023-05-10T05:11:00;13.90;99.90
18335;DHT22;9293;49.524;10.964;2023-05-10T05:13:29;13.90;99.90
18335;DHT22;9293;49.524;10.964;2023-05-10T05:15:57;13.90;99.90
18335;DHT22;9293;49.524;10.964;2023-05-10T05:18:28;13.90;99.90
18335;DHT22;9293;49.524;10.964;2023-05-10T05:20:56;14.00;99.90
18335;DHT22;9293;49.524;10.964;2023-05-10T05:23:24;14.00;99.90
18335;DHT22;9293;49.524;10.964;2023-05-10T05:25:55;14.00;99.90
18335;DHT22;9293;49.524;10.964;2023-05-10T05:28:26;14.00;99.90
18335;DHT22;9293;49.524;10.964;2023-05-10T05:30:56;14.00;99.90
18335;DHT22;9293;49.524;10.964;2023-05-10T05:33:25;14.10;99.90
18335;DHT22;9293;49.524;10.964;2023-05-10T05:35:54;14.10;99.90
18335;DHT22;9293;49.524;10.964;2023-05-10T05:38:23;14.20;99.90
18335;DHT22;9293;49.524;10.964;2023-05-10T05:40:52;14.20;99.90
18335;DHT22;9293;49.524;10.964;2023-05-10T05:43:40;14.20;99.90
18335;DHT22;9293;49.524;10.964;2023-05-10T05:46:08;14.20;99.90
18335;DHT22;9293;49.524;10.964;2023-05-10T05:48:36;14.20;99.90
18335;DHT22;9293;49.524;10.964;2023-05-10T05:51:05;14.20;99.90
18335;DHT22;9293;49.524;10.964;2023-05-10T05:53:33;14.20;99.90
18335;DHT22;9293;49.524;10.964;2023-05-10T05:56:01;14.10;99.90
18335;DHT22;9293;49.524;10.964;2023-05-10T05:58:29;14.10;99.90
18335;DHT22;9293;49.524;10.964;2023-05-10T06:00:58;14.10;99.90
18335;DHT22;9293;49.524;10.964;2023-05-10T06:03:26;14.10;99.90
18335;DHT22;9293;49.524;10.964;2023-05-10T06:05:54;14.30;99.90
18335;DHT22;9293;49.524;10.964;2023-05-10T06:08:22;14.30;99.90
18335;DHT22;9293;49.524;10.964;2023-05-10T06:10:50;14.30;99.90
18335;DHT22;9293;49.524;10.964;2023-05-10T06:13:19;14.30;99.90
18335;DHT22;9293;49.524;10.964;2023-05-10T06:15:47;14.40;99.90
18335;DHT22;9293;49.524;10.964;2023-05-10T06:18:15;14.50;99.90
18335;DHT22;9293;49.524;10.964;2023-05-10T06:20:43;14.40;99.90
18335;DHT22;9293;49.524;10.964;2023-05-10T06:23:11;14.50;99.90
18335;DHT22;9293;49.524;10.964;2023-05-10T06:25:39;14.50;99.90
18335;DHT22;9293;49.524;10.964;2023-05-10T06:28:08;14.60;99.90
18335;DHT22;9293;49.524;10.964;2023-05-10T06:30:36;14.60;99.90
18335;DHT22;9293;49.524;10.964;2023-05-10T06:33:04;14.60;99.90
18335;DHT22;9293;49.524;10.964;2023-05-10T06:35:32;14.60;99.90
18335;DHT22;9293;49.524;10.964;2023-05-10T06:38:01;14.70;99.90
18335;DHT22;9293;49.524;10.964;2023-05-10T06:40:29;14.90;99.90
18335;DHT22;9293;49.524;10.964;2023-05-10T06:42:57;14.90;99.90
18335;DHT22;9293;49.524;10.964;2023-05-10T06:45:25;14.90;99.90
18335;DHT22;9293;49.524;10.964;2023-05-10T06:47:53;14.90;99.90
18335;DHT22;9293;49.524;10.964;2023-05-10T06:50:21;15.10;99.90
18335;DHT22;9293;49.524;10.964;2023-05-10T06:52:49;15.30;99.90
18335;DHT22;9293;49.524;10.964;2023-05-10T06:55:19;15.50;99.90
18335;DHT22;9293;49.524;10.964;2023-05-10T06:57:49;15.70;99.90
18335;DHT22;9293;49.524;10.964;2023-05-10T07:00:18;15.60;99.90
18335;DHT22;9293;49.524;10.964;2023-05-10T07:02:47;15.60;99.90
18335;DHT22;9293;49.524;10.964;2023-05-10T07:05:15;15.60;99.90
18335;DHT22;9293;49.524;10.964;2023-05-10T07:07:44;15.70;99.90
18335;DHT22;9293;49.524;10.964;2023-05-10T07:10:12;16.00;99.90
18335;DHT22;9293;49.524;10.964;2023-05-10T07:12:41;16.30;99.90
18335;DHT22;9293;49.524;10.964;2023-05-10T07:15:09;16.20;99.90
18335;DHT22;9293;49.524;10.964;2023-05-10T07:17:38;16.30;99.90
18335;DHT22;9293;49.524;10.964;2023-05-10T07:20:10;16.40;99.90
18335;DHT22;9293;49.524;10.964;2023-05-10T07:22:39;16.50;99.90
18335;DHT22;9293;49.524;10.964;2023-05-10T07:25:07;16.60;99.90
18335;DHT22;9293;49.524;10.964;2023-05-10T07:27:36;16.40;99.90
18335;DHT22;9293;49.524;10.964;2023-05-10T07:30:04;16.30;99.90
18335;DHT22;9293;49.524;10.964;2023-05-10T07:32:33;16.10;99.90
18335;DHT22;9293;49.524;10.964;2023-05-10T07:35:01;16.20;99.90
18335;DHT22;9293;49.524;10.964;2023-05-10T07:37:30;16.20;99.90
18335;DHT22;9293;49.524;10.964;2023-05-10T07:40:16;16.10;99.90
18335;DHT22;9293;49.524;10.964;2023-05-10T07:45:46;15.90;99.90
18335;DHT22;9293;49.524;10.964;2023-05-10T07:52:06;15.50;99.90
18335;DHT22;9293;49.524;10.964;2023-05-10T07:54:34;15.50;99.90
18335;DHT22;9293;49.524;10.964;2023-05-10T07:57:03;15.60;99.90
18335;DHT22;9293;49.524;10.964;2023-05-10T07:59:31;15.50;99.90
18335;DHT22;9293;49.524;10.964;2023-05-10T08:02:00;15.50;99.90
18335;DHT22;9293;49.524;10.964;2023-05-10T08:04:28;15.60;99.90
18335;DHT22;9293;49.524;10.964;2023-05-10T08:06:56;15.90;99.90
18335;DHT22;9293;49.524;10.964;2023-05-10T08:09:24;16.00;99.90
18335;DHT22;9293;49.524;10.964;2023-05-10T08:11:52;16.10;99.90
18335;DHT22;9293;49.524;10.964;2023-05-10T08:14:20;16.00;99.90
18335;DHT22;9293;49.524;10.964;2023-05-10T08:16:49;16.10;99.90
18335;DHT22;9293;49.524;10.964;2023-05-10T08:19:17;16.10;99.90
18335;DHT22;9293;49.524;10.964;2023-05-10T08:21:49;15.90;99.90
18335;DHT22;9293;49.524;10.964;2023-05-10T08:24:17;16.00;99.90
18335;DHT22;9293;49.524;10.964;2023-05-10T08:26:45;16.10;99.90
18335;DHT22;9293;49.524;10.964;2023-05-10T08:29:13;16.30;99.90
18335;DHT22;9293;49.524;10.964;2023-05-10T08:31:42;16.60;99.90
18335;DHT22;9293;49.524;10.964;2023-05-10T08:34:10;16.70;99.90
18335;DHT22;9293;49.524;10.964;2023-05-10T08:36:38;16.80;99.90
18335;DHT22;9293;49.524;10.964;2023-05-10T08:39:06;17.00;99.90
18335;DHT22;9293;49.524;10.964;2023-05-10T08:41:58;17.10;99.90
18335;DHT22;9293;49.524;10.964;2023-05-10T08:44:30;17.20;99.90
18335;DHT22;9293;49.524;10.964;2023-05-10T08:46:59;17.40;99.90
18335;DHT22;9293;49.524;10.964;2023-05-10T08:49:31;17.60;99.90
18335;DHT22;9293;49.524;10.964;2023-05-10T08:51:59;17.50;99.90
18335;DHT22;9293;49.524;10.964;2023-05-10T08:54:30;17.50;99.90
18335;DHT22;9293;49.524;10.964;2023-05-10T08:56:59;17.50;99.90
18335;DHT22;9293;49.524;10.964;2023-05-10T08:59:27;17.60;99.90
18335;DHT22;9293;49.524;10.964;2023-05-10T09:01:58;17.60;99.90
18335;DHT22;9293;49.524;10.964;2023-05-10T09:04:27;17.30;99.90
18335;DHT22;9293;49.524;10.964;2023-05-10T09:06:56;16.80;99.90
18335;DHT22;9293;49.524;10.964;2023-05-10T09:09:24;16.20;99.90
18335;DHT22;9293;49.524;10.964;2023-05-10T09:11:53;15.80;99.90
18335;DHT22;9293;49.524;10.964;2023-05-10T09:14:21;15.40;99.90
18335;DHT22;9293;49.524;10.964;2023-05-10T09:16:51;15.10;99.90
18335;DHT22;9293;49.524;10.964;2023-05-10T09:19:19;15.00;99.90
18335;DHT22;9293;49.524;10.964;2023-05-10T09:21:47;15.20;99.90
18335;DHT22;9293;49.524;10.964;2023-05-10T09:24:16;15.50;99.90
18335;DHT22;9293;49.524;10.964;2023-05-10T09:26:49;15.80;99.90
18335;DHT22;9293;49.524;10.964;2023-05-10T09:29:17;16.00;99.90
18335;DHT22;9293;49.524;10.964;2023-05-10T09:31:49;16.20;99.90
18335;DHT22;9293;49.524;10.964;2023-05-10T09:34:29;16.20;99.90
18335;DHT22;9293;49.524;10.964;2023-05-10T09:37:01;16.40;99.90
18335;DHT22;9293;49.524;10.964;2023-05-10T09:39:35;16.70;99.90
18335;DHT22;9293;49.524;10.964;2023-05-10T09:42:04;16.80;99.90
18335;DHT22;9293;49.524;10.964;2023-05-10T09:44:35;17.20;99.90
18335;DHT22;9293;49.524;10.964;2023-05-10T09:47:07;17.90;99.90
18335;DHT22;9293;49.524;10.964;2023-05-10T09:49:38;18.20;99.90
18335;DHT22;9293;49.524;10.964;2023-05-10T09:52:07;18.70;99.90
18335;DHT22;9293;49.524;10.964;2023-05-10T09:54:37;19.10;99.90
18335;DHT22;9293;49.524;10.964;2023-05-10T09:57:07;19.30;99.90
18335;DHT22;9293;49.524;10.964;2023-05-10T09:59:51;19.60;99.90
18335;DHT22;9293;49.524;10.964;2023-05-10T10:02:28;19.70;99.90
18335;DHT22;9293;49.524;10.964;2023-05-10T10:05:01;19.70;99.90
18335;DHT22;9293;49.524;10.964;2023-05-10T10:07:31;19.80;99.90
18335;DHT22;9293;49.524;10.964;2023-05-10T10:10:12;19.70;99.90
18335;DHT22;9293;49.524;10.964;2023-05-10T10:12:41;19.80;99.90
18335;DHT22;9293;49.524;10.964;2023-05-10T10:15:14;20.40;99.90
18335;DHT22;9293;49.524;10.964;2023-05-10T10:17:44;21.00;99.90
18335;DHT22;9293;49.524;10.964;2023-05-10T10:20:13;21.50;99.90
18335;DHT22;9293;49.524;10.964;2023-05-10T10:22:42;21.50;99.90
18335;DHT22;9293;49.524;10.964;2023-05-10T10:25:16;21.70;99.90
18335;DHT22;9293;49.524;10.964;2023-05-10T10:34:26;21.40;99.90
18335;DHT22;9293;49.524;10.964;2023-05-10T10:37:08;21.20;99.90
18335;DHT22;9293;49.524;10.964;2023-05-10T10:39:44;21.00;99.90
18335;DHT22;9293;49.524;10.964;2023-05-10T10:42:14;20.50;99.90
18335;DHT22;9293;49.524;10.964;2023-05-10T10:45:05;20.00;99.90
18335;DHT22;9293;49.524;10.964;2023-05-10T10:47:41;19.50;99.90
18335;DHT22;9293;49.524;10.964;2023-05-10T10:50:11;19.10;99.90
18335;DHT22;9293;49.524;10.964;2023-05-10T10:52:45;18.60;99.90
18335;DHT22;9293;49.524;10.964;2023-05-10T10:55:15;18.30;99.90
18335;DHT22;9293;49.524;10.964;2023-05-10T10:57:47;18.00;99.90
18335;DHT22;9293;49.524;10.964;2023-05-10T11:00:26;17.90;99.90
18335;DHT22;9293;49.524;10.964;2023-05-10T11:10:37;17.60;99.90
18335;DHT22;9293;49.524;10.964;2023-05-10T11:13:09;17.60;99.90
18335;DHT22;9293;49.524;10.964;2023-05-10T11:15:39;17.50;99.90
18335;DHT22;9293;49.524;10.964;2023-05-10T11:18:17;17.50;99.90
18335;DHT22;9293;49.524;10.964;2023-05-10T11:20:52;17.40;99.90
18335;DHT22;9293;49.524;10.964;2023-05-10T11:23:28;17.20;99.90
18335;DHT22;9293;49.524;10.964;2023-05-10T11:25:59;17.20;99.90
18335;DHT22;9293;49.524;10.964;2023-05-10T11:28:41;17.20;99.90
18335;DHT22;9293;49.524;10.964;2023-05-10T11:31:10;17.30;99.90
18335;DHT22;9293;49.524;10.964;2023-05-10T11:33:42;17.40;99.90
18335;DHT22;9293;49.524;10.964;2023-05-10T11:36:15;17.40;99.90
18335;DHT22;9293;49.524;10.964;2023-05-10T11:38:46;17.40;99.90
18335;DHT22;9293;49.524;10.964;2023-05-10T11:41:20;17.70;99.90
18335;DHT22;9293;49.524;10.964;2023-05-10T11:43:51;17.70;99.90
18335;DHT22;9293;49.524;10.964;2023-05-10T11:46:21;17.90;99.90
18335;DHT22;9293;49.524;10.964;2023-05-10T11:48:51;17.80;99.90
18335;DHT22;9293;49.524;10.964;2023-05-10T11:51:22;17.80;99.90
18335;DHT22;9293;49.524;10.964;2023-05-10T11:53:54;17.90;99.90
18335;DHT22;9293;49.524;10.964;2023-05-10T11:56:24;18.00;99.90
18335;DHT22;9293;49.524;10.964;2023-05-10T11:58:57;18.00;99.90
18335;DHT22;9293;49.524;10.964;2023-05-10T12:01:27;18.10;99.90
18335;DHT22;9293;49.524;10.964;2023-05-10T12:03:57;18.10;99.90
18335;DHT22;9293;49.524;10.964;2023-05-10T12:06:36;18.30;99.90
18335;DHT22;9293;49.524;10.964;2023-05-10T12:09:05;18.20;99.90
18335;DHT22;9293;49.524;10.964;2023-05-10T12:11:37;18.10;99.90
18335;DHT22;9293;49.524;10.964;2023-05-10T12:14:09;17.80;99.90
18335;DHT22;9293;49.524;10.964;2023-05-10T12:16:38;17.80;99.90
18335;DHT22;9293;49.524;10.964;2023-05-10T12:19:07;17.90;99.90
18335;DHT22;9293;49.524;10.964;2023-05-10T12:21:35;18.00;99.90
18335;DHT22;9293;49.524;10.964;2023-05-10T12:24:04;18.20;99.90
18335;DHT22;9293;49.524;10.964;2023-05-10T12:26:33;18.50;99.90
18335;DHT22;9293;49.524;10.964;2023-05-10T12:31:58;18.40;99.90
18335;DHT22;9293;49.524;10.964;2023-05-10T12:34:29;18.20;99.90
18335;DHT22;9293;49.524;10.964;2023-05-10T12:36:58;18.20;99.90
18335;DHT22;9293;49.524;10.964;2023-05-10T12:39:41;18.30;99.90
18335;DHT22;9293;49.524;10.964;2023-05-10T12:42:10;18.30;99.90
18335;DHT22;9293;49.524;10.964;2023-05-10T12:44:39;18.30;99.90
18335;DHT22;9293;49.524;10.964;2023-05-10T12:47:08;18.30;99.90
18335;DHT22;9293;49.524;10.964;2023-05-10T12:49:36;18.20;99.90
18335;DHT22;9293;49.524;10.964;2023-05-10T12:52:05;18.20;99.90
18335;DHT22;9293;49.524;10.964;2023-05-10T12:54:33;18.00;99.90
18335;DHT22;9293;49.524;10.964;2023-05-10T12:57:02;17.80;99.90
18335;DHT22;9293;49.524;10.964;2023-05-10T12:59:31;17.80;99.90
18335;DHT22;9293;49.524;10.964;2023-05-10T13:02:02;17.80;99.90
18335;DHT22;9293;49.524;10.964;2023-05-10T13:04:31;17.70;99.90
18335;DHT22;9293;49.524;10.964;2023-05-10T13:07:00;17.50;99.90
18335;DHT22;9293;49.524;10.964;2023-05-10T13:09:28;17.40;99.90
18335;DHT22;9293;49.524;10.964;2023-05-10T13:11:57;17.30;99.90
18335;DHT22;9293;49.524;10.964;2023-05-10T13:14:25;17.20;99.90
18335;DHT22;9293;49.524;10.964;2023-05-10T13:16:54;17.30;99.90
18335;DHT22;9293;49.524;10.964;2023-05-10T13:19:22;17.40;99.90
18335;DHT22;9293;49.524;10.964;2023-05-10T13:21:52;17.60;99.90
18335;DHT22;9293;49.524;10.964;2023-05-10T13:24:20;17.70;99.90
18335;DHT22;9293;49.524;10.964;2023-05-10T13:26:49;17.80;99.90
18335;DHT22;9293;49.524;10.964;2023-05-10T13:29:19;17.90;99.90
18335;DHT22;9293;49.524;10.964;2023-05-10T13:31:49;17.90;99.90
18335;DHT22;9293;49.524;10.964;2023-05-10T13:34:18;18.10;99.90
18335;DHT22;9293;49.524;10.964;2023-05-10T13:36:48;18.20;99.90
18335;DHT22;9293;49.524;10.964;2023-05-10T13:39:16;18.20;99.90
18335;DHT22;9293;49.524;10.964;2023-05-10T13:41:45;18.20;99.90
18335;DHT22;9293;49.524;10.964;2023-05-10T13:44:14;18.10;99.90
18335;DHT22;9293;49.524;10.964;2023-05-10T13:46:42;18.20;99.90
18335;DHT22;9293;49.524;10.964;2023-05-10T13:49:11;18.30;99.90
18335;DHT22;9293;49.524;10.964;2023-05-10T13:51:40;18.40;99.90
18335;DHT22;9293;49.524;10.964;2023-05-10T13:54:08;18.60;99.90
18335;DHT22;9293;49.524;10.964;2023-05-10T13:56:41;18.60;99.90
18335;DHT22;9293;49.524;10.964;2023-05-10T13:59:15;18.60;99.90
18335;DHT22;9293;49.524;10.964;2023-05-10T14:01:43;18.70;99.90
18335;DHT22;9293;49.524;10.964;2023-05-10T14:04:12;18.60;99.90
18335;DHT22;9293;49.524;10.964;2023-05-10T14:06:40;18.70;99.90
18335;DHT22;9293;49.524;10.964;2023-05-10T14:09:09;18.80;99.90
18335;DHT22;9293;49.524;10.964;2023-05-10T14:11:38;18.80;99.90
18335;DHT22;9293;49.524;10.964;2023-05-10T14:14:09;18.70;99.90
18335;DHT22;9293;49.524;10.964;2023-05-10T14:16:38;18.70;99.90
18335;DHT22;9293;49.524;10.964;2023-05-10T14:19:06;18.80;99.90
18335;DHT22;9293;49.524;10.964;2023-05-10T14:21:35;18.70;99.90
18335;DHT22;9293;49.524;10.964;2023-05-10T14:24:04;18.60;99.90
18335;DHT22;9293;49.524;10.964;2023-05-10T14:26:32;18.60;99.90
18335;DHT22;9293;49.524;10.964;2023-05-10T14:29:02;18.60;99.90
18335;DHT22;9293;49.524;10.964;2023-05-10T14:31:30;18.70;99.90
18335;DHT22;9293;49.524;10.964;2023-05-10T14:33:59;18.70;99.90
18335;DHT22;9293;49.524;10.964;2023-05-10T14:36:28;18.70;99.90
18335;DHT22;9293;49.524;10.964;2023-05-10T14:38:57;18.70;99.90
18335;DHT22;9293;49.524;10.964;2023-05-10T14:41:25;18.70;99.90
18335;DHT22;9293;49.524;10.964;2023-05-10T14:43:54;18.80;99.90
18335;DHT22;9293;49.524;10.964;2023-05-10T14:46:22;18.90;99.90
18335;DHT22;9293;49.524;10.964;2023-05-10T14:48:54;18.90;99.90
18335;DHT22;9293;49.524;10.964;2023-05-10T14:51:23;18.80;99.90
18335;DHT22;9293;49.524;10.964;2023-05-10T14:53:51;18.90;99.90
18335;DHT22;9293;49.524;10.964;2023-05-10T14:56:20;18.50;99.90
18335;DHT22;9293;49.524;10.964;2023-05-10T14:58:49;18.00;99.90
18335;DHT22;9293;49.524;10.964;2023-05-10T15:01:18;17.60;99.90
18335;DHT22;9293;49.524;10.964;2023-05-10T15:03:48;17.20;99.90
18335;DHT22;9293;49.524;10.964;2023-05-10T15:06:17;16.90;99.90
18335;DHT22;9293;49.524;10.964;2023-05-10T15:08:51;16.70;99.90
18335;DHT22;9293;49.524;10.964;2023-05-10T15:11:21;16.70;99.90
18335;DHT22;9293;49.524;10.964;2023-05-10T15:17:57;16.80;99.90
18335;DHT22;9293;49.524;10.964;2023-05-10T15:20:27;16.80;99.90
18335;DHT22;9293;49.524;10.964;2023-05-10T15:22:55;16.80;99.90
18335;DHT22;9293;49.524;10.964;2023-05-10T15:25:24;16.90;99.90
18335;DHT22;9293;49.524;10.964;2023-05-10T15:27:53;16.80;99.90
18335;DHT22;9293;49.524;10.964;2023-05-10T15:30:21;16.90;99.90
18335;DHT22;9293;49.524;10.964;2023-05-10T15:32:50;16.90;99.90
18335;DHT22;9293;49.524;10.964;2023-05-10T15:35:19;16.80;99.90
18335;DHT22;9293;49.524;10.964;2023-05-10T15:37:48;16.90;99.90
18335;DHT22;9293;49.524;10.964;2023-05-10T15:40:17;17.00;99.90
18335;DHT22;9293;49.524;10.964;2023-05-10T15:42:46;17.10;99.90
18335;DHT22;9293;49.524;10.964;2023-05-10T15:45:14;17.10;99.90
18335;DHT22;9293;49.524;10.964;2023-05-10T15:47:44;17.10;99.90
18335;DHT22;9293;49.524;10.964;2023-05-10T15:50:15;17.10;99.90
18335;DHT22;9293;49.524;10.964;2023-05-10T15:52:48;17.10;99.90
18335;DHT22;9293;49.524;10.964;2023-05-10T15:55:20;17.10;99.90
18335;DHT22;9293;49.524;10.964;2023-05-10T15:57:49;17.20;99.90
18335;DHT22;9293;49.524;10.964;2023-05-10T16:00:21;17.20;99.90
18335;DHT22;9293;49.524;10.964;2023-05-10T16:02:53;17.20;99.90
18335;DHT22;9293;49.524;10.964;2023-05-10T16:05:24;17.20;99.90
18335;DHT22;9293;49.524;10.964;2023-05-10T16:07:57;17.10;99.90
18335;DHT22;9293;49.524;10.964;2023-05-10T16:10:25;17.20;99.90
18335;DHT22;9293;49.524;10.964;2023-05-10T16:13:11;17.20;99.90
18335;DHT22;9293;49.524;10.964;2023-05-10T16:15:42;17.20;99.90
18335;DHT22;9293;49.524;10.964;2023-05-10T16:18:10;17.20;99.90
18335;DHT22;9293;49.524;10.964;2023-05-10T16:20:38;17.00;99.90
18335;DHT22;9293;49.524;10.964;2023-05-10T16:23:06;16.90;99.90
18335;DHT22;9293;49.524;10.964;2023-05-10T16:25:35;16.90;99.90
18335;DHT22;9293;49.524;10.964;2023-05-10T16:28:05;16.90;99.90